sensor_id;sensor_type;location;lat;lon;timestamp;pressure;altitude;pressure_sealevel;temperature
68952;BMP180;56000;51.146;17.112;2023-12-22T00:01:57;97169.00;;;6.10
68952;BMP180;56000;51.146;17.112;2023-12-22T00:04:30;97168.00;;;6.10
68952;BMP180;56000;51.146;17.112;2023-12-22T00:07:03;97162.00;;;6.10
68952;BMP180;56000;51.146;17.112;2023-12-22T00:09:36;97164.20;;;6.10
68952;BMP180;56000;51.146;17.112;2023-12-22T00:12:09;97170.60;;;6.10
68952;BMP180;56000;51.146;17.112;2023-12-22T00:14:42;97152.60;;;6.10
68952;BMP180;56000;51.146;17.112;2023-12-22T00:17:15;97159.40;;;6.00
68952;BMP180;56000;51.146;17.112;2023-12-22T00:19:48;97154.20;;;6.00
68952;BMP180;56000;51.146;17.112;2023-12-22T00:22:21;97152.00;;;5.90
68952;BMP180;56000;51.146;17.112;2023-12-22T00:24:54;97153.60;;;5.90
68952;BMP180;56000;51.146;17.112;2023-12-22T00:27:27;97165.40;;;5.86
68952;BMP180;56000;51.146;17.112;2023-12-22T00:30:00;97166.40;;;5.80
68952;BMP180;56000;51.146;17.112;2023-12-22T00:32:33;97163.80;;;5.82
68952;BMP180;56000;51.146;17.112;2023-12-22T00:35:08;97171.60;;;5.90
68952;BMP180;56000;51.146;17.112;2023-12-22T00:37:41;97168.20;;;5.80
68952;BMP180;56000;51.146;17.112;2023-12-22T00:40:14;97178.60;;;5.80
68952;BMP180;56000;51.146;17.112;2023-12-22T00:42:47;97187.20;;;5.80
68952;BMP180;56000;51.146;17.112;2023-12-22T00:45:20;97174.40;;;5.80
68952;BMP180;56000;51.146;17.112;2023-12-22T00:47:53;97181.00;;;5.90
68952;BMP180;56000;51.146;17.112;2023-12-22T00:50:26;97177.40;;;5.90
68952;BMP180;56000;51.146;17.112;2023-12-22T00:52:59;97190.20;;;5.90
68952;BMP180;56000;51.146;17.112;2023-12-22T00:55:32;97188.60;;;5.90
68952;BMP180;56000;51.146;17.112;2023-12-22T00:58:05;97184.80;;;5.90
68952;BMP180;56000;51.146;17.112;2023-12-22T01:00:38;97185.20;;;5.90
68952;BMP180;56000;51.146;17.112;2023-12-22T01:03:11;97194.00;;;5.90
68952;BMP180;56000;51.146;17.112;2023-12-22T01:05:44;97185.20;;;5.90
68952;BMP180;56000;51.146;17.112;2023-12-22T01:08:17;97188.80;;;5.90
68952;BMP180;56000;51.146;17.112;2023-12-22T01:10:52;97192.00;;;5.80
68952;BMP180;56000;51.146;17.112;2023-12-22T01:13:25;97192.60;;;5.74
68952;BMP180;56000;51.146;17.112;2023-12-22T01:15:57;97201.40;;;5.70
68952;BMP180;56000;51.146;17.112;2023-12-22T01:18:30;97218.20;;;5.60
68952;BMP180;56000;51.146;17.112;2023-12-22T01:21:03;97212.60;;;5.50
68952;BMP180;56000;51.146;17.112;2023-12-22T01:23:36;97217.40;;;5.50
68952;BMP180;56000;51.146;17.112;2023-12-22T01:26:08;97216.60;;;5.40
68952;BMP180;56000;51.146;17.112;2023-12-22T01:28:41;97209.80;;;5.40
68952;BMP180;56000;51.146;17.112;2023-12-22T01:31:14;97226.20;;;5.40
68952;BMP180;56000;51.146;17.112;2023-12-22T01:33:47;97218.00;;;5.40
68952;BMP180;56000;51.146;17.112;2023-12-22T01:36:20;97226.00;;;5.40
68952;BMP180;56000;51.146;17.112;2023-12-22T01:38:52;97215.80;;;5.40
68952;BMP180;56000;51.146;17.112;2023-12-22T01:41:25;97207.60;;;5.40
68952;BMP180;56000;51.146;17.112;2023-12-22T01:43:58;97212.80;;;5.32
68952;BMP180;56000;51.146;17.112;2023-12-22T01:46:31;97206.20;;;5.30
68952;BMP180;56000;51.146;17.112;2023-12-22T01:49:05;97206.60;;;5.30
68952;BMP180;56000;51.146;17.112;2023-12-22T01:51:40;97194.00;;;5.30
68952;BMP180;56000;51.146;17.112;2023-12-22T01:54:15;97204.40;;;5.32
68952;BMP180;56000;51.146;17.112;2023-12-22T01:56:48;97199.60;;;5.40
68952;BMP180;56000;51.146;17.112;2023-12-22T01:59:21;97196.00;;;5.40
68952;BMP180;56000;51.146;17.112;2023-12-22T02:01:54;97192.40;;;5.40
68952;BMP180;56000;51.146;17.112;2023-12-22T02:04:28;97188.80;;;5.40
68952;BMP180;56000;51.146;17.112;2023-12-22T02:07:04;97182.60;;;5.40
68952;BMP180;56000;51.146;17.112;2023-12-22T02:09:40;97181.80;;;5.40
68952;BMP180;56000;51.146;17.112;2023-12-22T02:12:12;97192.40;;;5.48
68952;BMP180;56000;51.146;17.112;2023-12-22T02:14:45;97185.20;;;5.50
68952;BMP180;56000;51.146;17.112;2023-12-22T02:17:26;97185.40;;;5.50
68952;BMP180;56000;51.146;17.112;2023-12-22T02:20:02;97197.20;;;5.50
68952;BMP180;56000;51.146;17.112;2023-12-22T02:22:35;97187.00;;;5.50
68952;BMP180;56000;51.146;17.112;2023-12-22T02:25:09;97194.60;;;5.50
68952;BMP180;56000;51.146;17.112;2023-12-22T02:27:47;97198.60;;;5.50
68952;BMP180;56000;51.146;17.112;2023-12-22T02:30:26;97215.00;;;5.50
68952;BMP180;56000;51.146;17.112;2023-12-22T02:33:05;97204.20;;;5.42
68952;BMP180;56000;51.146;17.112;2023-12-22T02:35:40;97209.20;;;5.34
68952;BMP180;56000;51.146;17.112;2023-12-22T02:38:14;97211.20;;;5.30
68952;BMP180;56000;51.146;17.112;2023-12-22T02:40:48;97196.80;;;5.20
68952;BMP180;56000;51.146;17.112;2023-12-22T02:43:21;97206.20;;;5.10
68952;BMP180;56000;51.146;17.112;2023-12-22T02:45:54;97216.40;;;5.00
68952;BMP180;56000;51.146;17.112;2023-12-22T02:48:27;97223.40;;;4.94
68952;BMP180;56000;51.146;17.112;2023-12-22T02:51:00;97222.40;;;4.84
68952;BMP180;56000;51.146;17.112;2023-12-22T02:53:33;97240.40;;;4.70
68952;BMP180;56000;51.146;17.112;2023-12-22T02:56:07;97230.60;;;4.60
68952;BMP180;56000;51.146;17.112;2023-12-22T02:58:39;97235.40;;;4.48
68952;BMP180;56000;51.146;17.112;2023-12-22T03:01:12;97239.20;;;4.30
68952;BMP180;56000;51.146;17.112;2023-12-22T03:03:45;97243.20;;;4.30
68952;BMP180;56000;51.146;17.112;2023-12-22T03:06:18;97234.80;;;4.20
68952;BMP180;56000;51.146;17.112;2023-12-22T03:08:50;97229.60;;;4.12
68952;BMP180;56000;51.146;17.112;2023-12-22T03:11:23;97241.60;;;4.10
68952;BMP180;56000;51.146;17.112;2023-12-22T03:13:56;97249.40;;;4.10
68952;BMP180;56000;51.146;17.112;2023-12-22T03:16:29;97239.00;;;4.10
68952;BMP180;56000;51.146;17.112;2023-12-22T03:19:01;97240.40;;;4.10
68952;BMP180;56000;51.146;17.112;2023-12-22T03:21:34;97236.20;;;4.18
68952;BMP180;56000;51.146;17.112;2023-12-22T03:24:08;97240.40;;;4.20
68952;BMP180;56000;51.146;17.112;2023-12-22T03:26:40;97244.20;;;4.20
68952;BMP180;56000;51.146;17.112;2023-12-22T03:29:13;97256.80;;;4.28
68952;BMP180;56000;51.146;17.112;2023-12-22T03:31:47;97259.80;;;4.30
68952;BMP180;56000;51.146;17.112;2023-12-22T03:34:19;97266.40;;;4.30
68952;BMP180;56000;51.146;17.112;2023-12-22T03:36:52;97267.40;;;4.38
68952;BMP180;56000;51.146;17.112;2023-12-22T03:39:25;97269.80;;;4.40
68952;BMP180;56000;51.146;17.112;2023-12-22T03:41:57;97274.20;;;4.40
68952;BMP180;56000;51.146;17.112;2023-12-22T03:44:31;97279.40;;;4.40
68952;BMP180;56000;51.146;17.112;2023-12-22T03:47:04;97285.80;;;4.30
68952;BMP180;56000;51.146;17.112;2023-12-22T03:49:37;97275.20;;;4.30
68952;BMP180;56000;51.146;17.112;2023-12-22T03:52:09;97288.00;;;4.22
68952;BMP180;56000;51.146;17.112;2023-12-22T03:54:42;97295.60;;;4.20
68952;BMP180;56000;51.146;17.112;2023-12-22T03:57:15;97292.60;;;4.20
68952;BMP180;56000;51.146;17.112;2023-12-22T03:59:48;97304.60;;;4.14
68952;BMP180;56000;51.146;17.112;2023-12-22T04:02:21;97287.00;;;4.10
68952;BMP180;56000;51.146;17.112;2023-12-22T04:04:53;97292.60;;;4.10
68952;BMP180;56000;51.146;17.112;2023-12-22T04:07:26;97300.00;;;4.10
68952;BMP180;56000;51.146;17.112;2023-12-22T04:09:59;97303.40;;;4.10
68952;BMP180;56000;51.146;17.112;2023-12-22T04:12:32;97297.40;;;4.10
68952;BMP180;56000;51.146;17.112;2023-12-22T04:15:07;97298.60;;;4.10
68952;BMP180;56000;51.146;17.112;2023-12-22T04:17:40;97293.60;;;4.12
68952;BMP180;56000;51.146;17.112;2023-12-22T04:20:13;97288.40;;;4.20
68952;BMP180;56000;51.146;17.112;2023-12-22T04:22:46;97296.00;;;4.20
68952;BMP180;56000;51.146;17.112;2023-12-22T04:25:18;97303.20;;;4.20
68952;BMP180;56000;51.146;17.112;2023-12-22T04:27:53;97294.80;;;4.20
68952;BMP180;56000;51.146;17.112;2023-12-22T04:30:26;97292.00;;;4.20
68952;BMP180;56000;51.146;17.112;2023-12-22T04:33:04;97306.40;;;4.10
68952;BMP180;56000;51.146;17.112;2023-12-22T04:35:37;97306.40;;;4.06
68952;BMP180;56000;51.146;17.112;2023-12-22T04:38:10;97283.40;;;4.00
68952;BMP180;56000;51.146;17.112;2023-12-22T04:40:43;97286.00;;;3.94
68952;BMP180;56000;51.146;17.112;2023-12-22T04:43:16;97284.60;;;4.00
68952;BMP180;56000;51.146;17.112;2023-12-22T04:45:49;97281.60;;;4.00
68952;BMP180;56000;51.146;17.112;2023-12-22T04:48:22;97279.40;;;4.08
68952;BMP180;56000;51.146;17.112;2023-12-22T04:50:55;97275.80;;;4.10
68952;BMP180;56000;51.146;17.112;2023-12-22T04:53:27;97270.80;;;4.10
68952;BMP180;56000;51.146;17.112;2023-12-22T04:56:00;97266.20;;;4.20
68952;BMP180;56000;51.146;17.112;2023-12-22T04:58:33;97264.40;;;4.20
68952;BMP180;56000;51.146;17.112;2023-12-22T05:01:06;97265.40;;;4.30
68952;BMP180;56000;51.146;17.112;2023-12-22T05:03:39;97254.20;;;4.30
68952;BMP180;56000;51.146;17.112;2023-12-22T05:06:12;97257.20;;;4.30
68952;BMP180;56000;51.146;17.112;2023-12-22T05:08:45;97252.60;;;4.30
68952;BMP180;56000;51.146;17.112;2023-12-22T05:11:18;97253.00;;;4.36
68952;BMP180;56000;51.146;17.112;2023-12-22T05:13:51;97265.40;;;4.40
68952;BMP180;56000;51.146;17.112;2023-12-22T05:16:23;97269.40;;;4.40
68952;BMP180;56000;51.146;17.112;2023-12-22T05:18:56;97265.40;;;4.50
68952;BMP180;56000;51.146;17.112;2023-12-22T05:21:29;97271.20;;;4.50
68952;BMP180;56000;51.146;17.112;2023-12-22T05:24:02;97271.60;;;4.50
68952;BMP180;56000;51.146;17.112;2023-12-22T05:26:36;97275.60;;;4.50
68952;BMP180;56000;51.146;17.112;2023-12-22T05:29:09;97278.20;;;4.50
68952;BMP180;56000;51.146;17.112;2023-12-22T05:31:44;97282.80;;;4.40
68952;BMP180;56000;51.146;17.112;2023-12-22T05:34:17;97274.20;;;4.40
68952;BMP180;56000;51.146;17.112;2023-12-22T05:36:49;97271.00;;;4.40
68952;BMP180;56000;51.146;17.112;2023-12-22T05:39:22;97273.40;;;4.40
68952;BMP180;56000;51.146;17.112;2023-12-22T05:41:55;97270.00;;;4.40
68952;BMP180;56000;51.146;17.112;2023-12-22T05:44:28;97280.60;;;4.48
68952;BMP180;56000;51.146;17.112;2023-12-22T05:47:02;97271.00;;;4.50
68952;BMP180;56000;51.146;17.112;2023-12-22T05:49:34;97278.60;;;4.50
68952;BMP180;56000;51.146;17.112;2023-12-22T05:52:08;97280.60;;;4.50
68952;BMP180;56000;51.146;17.112;2023-12-22T05:54:41;97281.80;;;4.50
68952;BMP180;56000;51.146;17.112;2023-12-22T05:57:14;97275.00;;;4.50
68952;BMP180;56000;51.146;17.112;2023-12-22T05:59:48;97284.20;;;4.50
68952;BMP180;56000;51.146;17.112;2023-12-22T06:02:21;97280.80;;;4.50
68952;BMP180;56000;51.146;17.112;2023-12-22T06:04:54;97286.00;;;4.50
68952;BMP180;56000;51.146;17.112;2023-12-22T06:07:27;97289.40;;;4.50
68952;BMP180;56000;51.146;17.112;2023-12-22T06:10:00;97295.00;;;4.40
68952;BMP180;56000;51.146;17.112;2023-12-22T06:12:33;97301.20;;;4.42
68952;BMP180;56000;51.146;17.112;2023-12-22T06:15:07;97303.20;;;4.40
68952;BMP180;56000;51.146;17.112;2023-12-22T06:17:40;97293.80;;;4.40
68952;BMP180;56000;51.146;17.112;2023-12-22T06:20:14;97286.60;;;4.40
68952;BMP180;56000;51.146;17.112;2023-12-22T06:22:47;97293.40;;;4.40
68952;BMP180;56000;51.146;17.112;2023-12-22T06:25:20;97301.00;;;4.38
68952;BMP180;56000;51.146;17.112;2023-12-22T06:27:53;97301.40;;;4.32
68952;BMP180;56000;51.146;17.112;2023-12-22T06:30:26;97306.40;;;4.30
68952;BMP180;56000;51.146;17.112;2023-12-22T06:32:59;97309.00;;;4.30
68952;BMP180;56000;51.146;17.112;2023-12-22T06:35:32;97312.60;;;4.30
68952;BMP180;56000;51.146;17.112;2023-12-22T06:38:05;97315.60;;;4.30
68952;BMP180;56000;51.146;17.112;2023-12-22T06:40:38;97308.80;;;4.30
68952;BMP180;56000;51.146;17.112;2023-12-22T06:43:12;97319.40;;;4.20
68952;BMP180;56000;51.146;17.112;2023-12-22T06:45:45;97307.20;;;4.20
68952;BMP180;56000;51.146;17.112;2023-12-22T06:48:19;97305.20;;;4.20
68952;BMP180;56000;51.146;17.112;2023-12-22T06:50:52;97319.60;;;4.20
68952;BMP180;56000;51.146;17.112;2023-12-22T06:53:24;97309.60;;;4.20
68952;BMP180;56000;51.146;17.112;2023-12-22T06:55:58;97308.80;;;4.20
68952;BMP180;56000;51.146;17.112;2023-12-22T06:58:33;97311.80;;;4.30
68952;BMP180;56000;51.146;17.112;2023-12-22T07:01:06;97308.20;;;4.30
68952;BMP180;56000;51.146;17.112;2023-12-22T07:03:41;97310.40;;;4.30
68952;BMP180;56000;51.146;17.112;2023-12-22T07:06:13;97311.00;;;4.30
68952;BMP180;56000;51.146;17.112;2023-12-22T07:11:51;97331.80;;;4.30
68952;BMP180;56000;51.146;17.112;2023-12-22T07:14:24;97315.20;;;4.30
68952;BMP180;56000;51.146;17.112;2023-12-22T07:16:57;97319.60;;;4.40
68952;BMP180;56000;51.146;17.112;2023-12-22T07:19:32;97317.40;;;4.40
68952;BMP180;56000;51.146;17.112;2023-12-22T07:22:06;97328.80;;;4.40
68952;BMP180;56000;51.146;17.112;2023-12-22T07:24:40;97349.00;;;4.40
68952;BMP180;56000;51.146;17.112;2023-12-22T07:27:14;97343.20;;;4.40
68952;BMP180;56000;51.146;17.112;2023-12-22T07:29:46;97357.40;;;4.50
68952;BMP180;56000;51.146;17.112;2023-12-22T07:32:20;97352.20;;;4.60
68952;BMP180;56000;51.146;17.112;2023-12-22T07:34:53;97354.60;;;4.68
68952;BMP180;56000;51.146;17.112;2023-12-22T07:37:26;97357.20;;;4.76
68952;BMP180;56000;51.146;17.112;2023-12-22T07:39:59;97370.20;;;4.80
68952;BMP180;56000;51.146;17.112;2023-12-22T07:42:32;97363.40;;;4.70
68952;BMP180;56000;51.146;17.112;2023-12-22T07:45:06;97362.80;;;4.50
68952;BMP180;56000;51.146;17.112;2023-12-22T07:47:44;97350.40;;;4.40
68952;BMP180;56000;51.146;17.112;2023-12-22T07:50:18;97337.20;;;4.30
68952;BMP180;56000;51.146;17.112;2023-12-22T07:52:52;97350.80;;;4.20
68952;BMP180;56000;51.146;17.112;2023-12-22T07:55:25;97349.20;;;4.14
68952;BMP180;56000;51.146;17.112;2023-12-22T07:57:58;97352.20;;;4.12
68952;BMP180;56000;51.146;17.112;2023-12-22T08:00:31;97337.40;;;4.10
68952;BMP180;56000;51.146;17.112;2023-12-22T08:03:04;97336.40;;;4.10
68952;BMP180;56000;51.146;17.112;2023-12-22T08:05:36;97326.00;;;4.10
68952;BMP180;56000;51.146;17.112;2023-12-22T08:08:10;97337.60;;;4.10
68952;BMP180;56000;51.146;17.112;2023-12-22T08:10:42;97348.20;;;4.10
68952;BMP180;56000;51.146;17.112;2023-12-22T08:13:15;97342.00;;;4.20
68952;BMP180;56000;51.146;17.112;2023-12-22T08:15:49;97352.40;;;4.20
68952;BMP180;56000;51.146;17.112;2023-12-22T08:18:22;97351.00;;;4.30
68952;BMP180;56000;51.146;17.112;2023-12-22T08:20:55;97362.40;;;4.30
68952;BMP180;56000;51.146;17.112;2023-12-22T08:23:28;97374.20;;;4.30
68952;BMP180;56000;51.146;17.112;2023-12-22T08:26:02;97344.60;;;4.34
68952;BMP180;56000;51.146;17.112;2023-12-22T08:28:35;97362.40;;;4.40
68952;BMP180;56000;51.146;17.112;2023-12-22T08:31:08;97366.80;;;4.40
68952;BMP180;56000;51.146;17.112;2023-12-22T08:33:41;97370.60;;;4.40
68952;BMP180;56000;51.146;17.112;2023-12-22T08:36:15;97364.20;;;4.40
68952;BMP180;56000;51.146;17.112;2023-12-22T08:38:48;97367.60;;;4.56
68952;BMP180;56000;51.146;17.112;2023-12-22T08:41:21;97372.00;;;5.16
68952;BMP180;56000;51.146;17.112;2023-12-22T08:43:55;97360.40;;;5.40
68952;BMP180;56000;51.146;17.112;2023-12-22T08:46:27;97370.00;;;5.30
68952;BMP180;56000;51.146;17.112;2023-12-22T08:49:00;97347.20;;;5.10
68952;BMP180;56000;51.146;17.112;2023-12-22T08:51:35;97358.60;;;4.98
68952;BMP180;56000;51.146;17.112;2023-12-22T08:54:08;97351.20;;;4.90
68952;BMP180;56000;51.146;17.112;2023-12-22T08:56:40;97355.60;;;4.80
68952;BMP180;56000;51.146;17.112;2023-12-22T08:59:14;97362.20;;;4.70
68952;BMP180;56000;51.146;17.112;2023-12-22T09:01:46;97370.60;;;4.70
68952;BMP180;56000;51.146;17.112;2023-12-22T09:04:19;97377.00;;;4.60
68952;BMP180;56000;51.146;17.112;2023-12-22T09:06:54;97373.40;;;4.60
68952;BMP180;56000;51.146;17.112;2023-12-22T09:09:27;97372.40;;;4.60
68952;BMP180;56000;51.146;17.112;2023-12-22T09:11:59;97372.40;;;4.52
68952;BMP180;56000;51.146;17.112;2023-12-22T09:14:32;97368.80;;;4.60
68952;BMP180;56000;51.146;17.112;2023-12-22T09:17:05;97384.60;;;4.60
68952;BMP180;56000;51.146;17.112;2023-12-22T09:19:41;97368.40;;;4.74
68952;BMP180;56000;51.146;17.112;2023-12-22T09:22:14;97361.20;;;5.68
68952;BMP180;56000;51.146;17.112;2023-12-22T09:24:48;97366.40;;;7.06
68952;BMP180;56000;51.146;17.112;2023-12-22T09:27:21;97376.80;;;8.00
68952;BMP180;56000;51.146;17.112;2023-12-22T09:29:54;97369.60;;;8.50
68952;BMP180;56000;51.146;17.112;2023-12-22T09:32:27;97358.80;;;8.52
68952;BMP180;56000;51.146;17.112;2023-12-22T09:35:02;97375.60;;;8.92
68952;BMP180;56000;51.146;17.112;2023-12-22T09:37:35;97360.00;;;9.52
68952;BMP180;56000;51.146;17.112;2023-12-22T09:40:11;97352.00;;;9.60
68952;BMP180;56000;51.146;17.112;2023-12-22T09:42:44;97362.80;;;9.40
68952;BMP180;56000;51.146;17.112;2023-12-22T09:45:18;97360.80;;;9.40
68952;BMP180;56000;51.146;17.112;2023-12-22T09:47:52;97361.60;;;9.08
68952;BMP180;56000;51.146;17.112;2023-12-22T09:50:25;97347.40;;;8.46
68952;BMP180;56000;51.146;17.112;2023-12-22T09:52:58;97371.60;;;7.68
68952;BMP180;56000;51.146;17.112;2023-12-22T09:55:34;97376.40;;;7.02
68952;BMP180;56000;51.146;17.112;2023-12-22T09:58:07;97384.80;;;6.46
68952;BMP180;56000;51.146;17.112;2023-12-22T10:00:41;97378.00;;;6.10
68952;BMP180;56000;51.146;17.112;2023-12-22T10:03:17;97372.20;;;5.80
68952;BMP180;56000;51.146;17.112;2023-12-22T10:05:51;97374.60;;;5.58
68952;BMP180;56000;51.146;17.112;2023-12-22T10:08:25;97370.00;;;5.44
68952;BMP180;56000;51.146;17.112;2023-12-22T10:10:59;97394.40;;;5.40
68952;BMP180;56000;51.146;17.112;2023-12-22T10:13:32;97369.20;;;5.30
68952;BMP180;56000;51.146;17.112;2023-12-22T10:16:07;97363.00;;;5.30
68952;BMP180;56000;51.146;17.112;2023-12-22T10:18:40;97362.80;;;5.44
68952;BMP180;56000;51.146;17.112;2023-12-22T10:21:13;97358.40;;;5.80
68952;BMP180;56000;51.146;17.112;2023-12-22T10:23:46;97363.60;;;6.10
68952;BMP180;56000;51.146;17.112;2023-12-22T10:26:19;97374.40;;;6.20
68952;BMP180;56000;51.146;17.112;2023-12-22T10:28:52;97365.00;;;6.26
68952;BMP180;56000;51.146;17.112;2023-12-22T10:31:25;97371.00;;;6.20
68952;BMP180;56000;51.146;17.112;2023-12-22T10:33:58;97373.40;;;6.16
68952;BMP180;56000;51.146;17.112;2023-12-22T10:36:31;97386.40;;;5.98
68952;BMP180;56000;51.146;17.112;2023-12-22T10:39:05;97383.40;;;5.90
68952;BMP180;56000;51.146;17.112;2023-12-22T10:41:37;97393.40;;;5.80
68952;BMP180;56000;51.146;17.112;2023-12-22T10:44:10;97386.80;;;5.80
68952;BMP180;56000;51.146;17.112;2023-12-22T10:46:43;97391.00;;;5.80
68952;BMP180;56000;51.146;17.112;2023-12-22T10:49:16;97385.00;;;5.70
68952;BMP180;56000;51.146;17.112;2023-12-22T10:51:49;97395.60;;;5.70
68952;BMP180;56000;51.146;17.112;2023-12-22T10:54:22;97378.60;;;5.70
68952;BMP180;56000;51.146;17.112;2023-12-22T10:56:57;97376.00;;;5.90
68952;BMP180;56000;51.146;17.112;2023-12-22T10:59:31;97392.80;;;6.12
68952;BMP180;56000;51.146;17.112;2023-12-22T11:02:09;97392.00;;;6.20
68952;BMP180;56000;51.146;17.112;2023-12-22T11:04:51;97405.20;;;6.10
68952;BMP180;56000;51.146;17.112;2023-12-22T11:07:29;97403.60;;;6.00
68952;BMP180;56000;51.146;17.112;2023-12-22T11:10:05;97400.00;;;5.88
68952;BMP180;56000;51.146;17.112;2023-12-22T11:12:39;97406.20;;;5.90
68952;BMP180;56000;51.146;17.112;2023-12-22T11:15:13;97406.20;;;6.00
68952;BMP180;56000;51.146;17.112;2023-12-22T11:17:47;97404.80;;;6.00
68952;BMP180;56000;51.146;17.112;2023-12-22T11:20:24;97418.20;;;5.90
68952;BMP180;56000;51.146;17.112;2023-12-22T11:22:58;97390.00;;;5.90
68952;BMP180;56000;51.146;17.112;2023-12-22T11:25:33;97412.40;;;5.90
68952;BMP180;56000;51.146;17.112;2023-12-22T11:28:08;97405.60;;;5.90
68952;BMP180;56000;51.146;17.112;2023-12-22T11:30:42;97415.20;;;6.00
68952;BMP180;56000;51.146;17.112;2023-12-22T11:33:15;97403.40;;;6.00
68952;BMP180;56000;51.146;17.112;2023-12-22T11:35:49;97403.80;;;6.10
68952;BMP180;56000;51.146;17.112;2023-12-22T11:38:22;97401.20;;;6.32
68952;BMP180;56000;51.146;17.112;2023-12-22T11:40:55;97401.20;;;6.40
68952;BMP180;56000;51.146;17.112;2023-12-22T11:43:29;97399.40;;;6.54
68952;BMP180;56000;51.146;17.112;2023-12-22T11:46:05;97408.00;;;6.60
68952;BMP180;56000;51.146;17.112;2023-12-22T11:48:38;97406.00;;;6.60
68952;BMP180;56000;51.146;17.112;2023-12-22T11:51:20;97415.80;;;6.70
68952;BMP180;56000;51.146;17.112;2023-12-22T11:53:53;97402.20;;;6.70
68952;BMP180;56000;51.146;17.112;2023-12-22T11:56:26;97404.20;;;6.50
68952;BMP180;56000;51.146;17.112;2023-12-22T11:58:59;97396.60;;;6.40
68952;BMP180;56000;51.146;17.112;2023-12-22T12:01:39;97405.80;;;6.40
68952;BMP180;56000;51.146;17.112;2023-12-22T12:04:12;97398.80;;;6.36
68952;BMP180;56000;51.146;17.112;2023-12-22T12:06:45;97406.00;;;6.40
68952;BMP180;56000;51.146;17.112;2023-12-22T12:09:46;97389.00;;;6.48
68952;BMP180;56000;51.146;17.112;2023-12-22T12:12:19;97400.80;;;6.50
68952;BMP180;56000;51.146;17.112;2023-12-22T12:14:59;97397.60;;;6.50
68952;BMP180;56000;51.146;17.112;2023-12-22T12:17:35;97397.20;;;6.54
68952;BMP180;56000;51.146;17.112;2023-12-22T12:20:12;97392.40;;;6.60
68952;BMP180;56000;51.146;17.112;2023-12-22T12:22:47;97405.80;;;6.50
68952;BMP180;56000;51.146;17.112;2023-12-22T12:25:23;97411.40;;;6.40
68952;BMP180;56000;51.146;17.112;2023-12-22T12:28:06;97413.60;;;6.30
68952;BMP180;56000;51.146;17.112;2023-12-22T12:30:41;97412.80;;;6.38
68952;BMP180;56000;51.146;17.112;2023-12-22T12:33:15;97420.80;;;6.42
68952;BMP180;56000;51.146;17.112;2023-12-22T12:35:48;97415.40;;;6.40
68952;BMP180;56000;51.146;17.112;2023-12-22T12:38:42;97417.40;;;6.30
68952;BMP180;56000;51.146;17.112;2023-12-22T12:41:16;97418.00;;;6.40
68952;BMP180;56000;51.146;17.112;2023-12-22T12:43:56;97407.00;;;6.30
68952;BMP180;56000;51.146;17.112;2023-12-22T12:46:37;97414.60;;;6.40
68952;BMP180;56000;51.146;17.112;2023-12-22T12:49:11;97403.00;;;6.40
68952;BMP180;56000;51.146;17.112;2023-12-22T12:51:48;97418.00;;;6.30
68952;BMP180;56000;51.146;17.112;2023-12-22T12:54:21;97414.80;;;6.30
68952;BMP180;56000;51.146;17.112;2023-12-22T12:56:53;97409.60;;;6.30
68952;BMP180;56000;51.146;17.112;2023-12-22T12:59:26;97420.60;;;6.30
68952;BMP180;56000;51.146;17.112;2023-12-22T13:01:59;97417.40;;;6.30
68952;BMP180;56000;51.146;17.112;2023-12-22T13:04:40;97417.40;;;6.30
68952;BMP180;56000;51.146;17.112;2023-12-22T13:07:14;97409.60;;;6.30
68952;BMP180;56000;51.146;17.112;2023-12-22T13:09:56;97417.40;;;6.30
68952;BMP180;56000;51.146;17.112;2023-12-22T13:12:29;97423.40;;;6.40
68952;BMP180;56000;51.146;17.112;2023-12-22T13:15:07;97423.60;;;6.42
68952;BMP180;56000;51.146;17.112;2023-12-22T13:17:40;97424.20;;;6.40
68952;BMP180;56000;51.146;17.112;2023-12-22T13:20:14;97431.40;;;6.40
68952;BMP180;56000;51.146;17.112;2023-12-22T13:22:47;97440.00;;;6.40
68952;BMP180;56000;51.146;17.112;2023-12-22T13:25:20;97432.80;;;6.40
68952;BMP180;56000;51.146;17.112;2023-12-22T13:27:55;97433.20;;;6.30
68952;BMP180;56000;51.146;17.112;2023-12-22T13:30:38;97438.00;;;6.20
68952;BMP180;56000;51.146;17.112;2023-12-22T13:33:13;97431.40;;;6.12
68952;BMP180;56000;51.146;17.112;2023-12-22T13:35:46;97435.00;;;6.10
68952;BMP180;56000;51.146;17.112;2023-12-22T13:38:19;97440.40;;;6.10
68952;BMP180;56000;51.146;17.112;2023-12-22T13:40:52;97441.00;;;6.00
68952;BMP180;56000;51.146;17.112;2023-12-22T13:43:28;97434.00;;;6.00
68952;BMP180;56000;51.146;17.112;2023-12-22T13:46:01;97443.20;;;5.92
68952;BMP180;56000;51.146;17.112;2023-12-22T13:48:35;97443.00;;;5.90
68952;BMP180;56000;51.146;17.112;2023-12-22T13:51:08;97443.60;;;5.90
68952;BMP180;56000;51.146;17.112;2023-12-22T13:53:51;97444.00;;;5.80
68952;BMP180;56000;51.146;17.112;2023-12-22T13:56:23;97440.60;;;5.80
68952;BMP180;56000;51.146;17.112;2023-12-22T13:58:56;97447.00;;;5.80
68952;BMP180;56000;51.146;17.112;2023-12-22T14:01:29;97449.20;;;5.76
68952;BMP180;56000;51.146;17.112;2023-12-22T14:04:02;97442.00;;;5.70
68952;BMP180;56000;51.146;17.112;2023-12-22T14:06:35;97458.20;;;5.70
68952;BMP180;56000;51.146;17.112;2023-12-22T14:09:09;97449.80;;;5.60
68952;BMP180;56000;51.146;17.112;2023-12-22T14:11:42;97451.00;;;5.58
68952;BMP180;56000;51.146;17.112;2023-12-22T14:14:28;97457.20;;;5.50
68952;BMP180;56000;51.146;17.112;2023-12-22T14:17:02;97459.60;;;5.50
68952;BMP180;56000;51.146;17.112;2023-12-22T14:19:35;97452.00;;;5.50
68952;BMP180;56000;51.146;17.112;2023-12-22T14:22:08;97443.60;;;5.40
68952;BMP180;56000;51.146;17.112;2023-12-22T14:24:41;97443.00;;;5.40
68952;BMP180;56000;51.146;17.112;2023-12-22T14:27:13;97438.00;;;5.40
68952;BMP180;56000;51.146;17.112;2023-12-22T14:29:49;97450.60;;;5.34
68952;BMP180;56000;51.146;17.112;2023-12-22T14:32:22;97453.60;;;5.30
68952;BMP180;56000;51.146;17.112;2023-12-22T14:34:54;97446.40;;;5.30
68952;BMP180;56000;51.146;17.112;2023-12-22T14:37:27;97438.20;;;5.30
68952;BMP180;56000;51.146;17.112;2023-12-22T14:40:00;97441.40;;;5.30
68952;BMP180;56000;51.146;17.112;2023-12-22T14:42:33;97442.20;;;5.20
68952;BMP180;56000;51.146;17.112;2023-12-22T14:45:07;97450.00;;;5.20
68952;BMP180;56000;51.146;17.112;2023-12-22T14:47:40;97453.00;;;5.20
68952;BMP180;56000;51.146;17.112;2023-12-22T14:50:13;97456.20;;;5.20